sensor_id;sensor_type;location;lat;lon;timestamp;pressure;altitude;pressure_sealevel;temperature
13497;BMP180;6820;49.374;8.452;2023-03-24T00:00:19;99561.84;;;21.19
13497;BMP180;6820;49.374;8.452;2023-03-24T00:04:21;99554.13;;;21.14
13497;BMP180;6820;49.374;8.452;2023-03-24T00:08:25;99550.66;;;21.09
13497;BMP180;6820;49.374;8.452;2023-03-24T00:12:31;99547.19;;;21.07
13497;BMP180;6820;49.374;8.452;2023-03-24T00:16:33;99535.16;;;21.08
13497;BMP180;6820;49.374;8.452;2023-03-24T00:20:35;99530.84;;;21.04
13497;BMP180;6820;49.374;8.452;2023-03-24T00:24:36;99523.09;;;21.03
13497;BMP180;6820;49.374;8.452;2023-03-24T00:28:38;99519.63;;;20.95
13497;BMP180;6820;49.374;8.452;2023-03-24T00:32:40;99516.16;;;20.88
13497;BMP180;6820;49.374;8.452;2023-03-24T00:36:41;99511.84;;;20.84
13497;BMP180;6820;49.374;8.452;2023-03-24T00:40:44;99496.34;;;20.78
13497;BMP180;6820;49.374;8.452;2023-03-24T00:44:46;99485.13;;;20.69
13497;BMP180;6820;49.374;8.452;2023-03-24T00:48:48;99474.81;;;20.71
13497;BMP180;6820;49.374;8.452;2023-03-24T00:52:52;99465.34;;;20.65
13497;BMP180;6820;49.374;8.452;2023-03-24T00:56:54;99457.63;;;20.64
13497;BMP180;6820;49.374;8.452;2023-03-24T01:00:56;99455.06;;;20.67
13497;BMP180;6820;49.374;8.452;2023-03-24T01:04:59;99449.91;;;20.68
13497;BMP180;6820;49.374;8.452;2023-03-24T01:09:04;99465.41;;;20.71
13497;BMP180;6820;49.374;8.452;2023-03-24T01:13:06;99454.25;;;20.75
13497;BMP180;6820;49.374;8.452;2023-03-24T01:17:08;99464.56;;;20.75
13497;BMP180;6820;49.374;8.452;2023-03-24T01:21:11;99450.84;;;20.77
13497;BMP180;6820;49.374;8.452;2023-03-24T01:25:15;99456.84;;;20.75
13497;BMP180;6820;49.374;8.452;2023-03-24T01:29:17;99443.84;;;20.60
13497;BMP180;6820;49.374;8.452;2023-03-24T01:33:19;99439.47;;;20.45
13497;BMP180;6820;49.374;8.452;2023-03-24T01:37:21;99447.09;;;20.37
13497;BMP180;6820;49.374;8.452;2023-03-24T01:41:32;99435.16;;;20.49
13497;BMP180;6820;49.374;8.452;2023-03-24T01:49:41;99429.28;;;20.58
13497;BMP180;6820;49.374;8.452;2023-03-24T01:53:49;99431.84;;;20.59
13497;BMP180;6820;49.374;8.452;2023-03-24T01:57:55;99432.72;;;20.60
13497;BMP180;6820;49.374;8.452;2023-03-24T02:02:04;99426.69;;;20.59
13497;BMP180;6820;49.374;8.452;2023-03-24T02:06:16;99424.16;;;20.64
13497;BMP180;6820;49.374;8.452;2023-03-24T02:10:20;99419.03;;;20.67
13497;BMP180;6820;49.374;8.452;2023-03-24T02:14:22;99409.63;;;20.72
13497;BMP180;6820;49.374;8.452;2023-03-24T02:27:18;99400.03;;;20.53
13497;BMP180;6820;49.374;8.452;2023-03-24T02:49:33;99377.66;;;20.40
13497;BMP180;6820;49.374;8.452;2023-03-24T02:53:53;99367.34;;;20.40
13497;BMP180;6820;49.374;8.452;2023-03-24T02:58:04;99360.53;;;20.49
13497;BMP180;6820;49.374;8.452;2023-03-24T03:02:33;99359.69;;;20.50
13497;BMP180;6820;49.374;8.452;2023-03-24T03:06:38;99365.66;;;20.42
13497;BMP180;6820;49.374;8.452;2023-03-24T03:10:42;99362.19;;;20.39
13497;BMP180;6820;49.374;8.452;2023-03-24T03:14:52;99353.59;;;20.38
13497;BMP180;6820;49.374;8.452;2023-03-24T03:18:57;99368.25;;;20.48
13497;BMP180;6820;49.374;8.452;2023-03-24T03:23:06;99369.16;;;20.50
13497;BMP180;6820;49.374;8.452;2023-03-24T03:27:17;99376.84;;;20.51
13497;BMP180;6820;49.374;8.452;2023-03-24T03:31:43;99390.59;;;20.50
13497;BMP180;6820;49.374;8.452;2023-03-24T03:35:47;99394.09;;;20.55
13497;BMP180;6820;49.374;8.452;2023-03-24T03:39:57;99392.34;;;20.57
13497;BMP180;6820;49.374;8.452;2023-03-24T03:44:01;99398.38;;;20.56
13497;BMP180;6820;49.374;8.452;2023-03-24T03:48:02;99416.44;;;20.61
13497;BMP180;6820;49.374;8.452;2023-03-24T03:52:04;99413.03;;;20.66
13497;BMP180;6820;49.374;8.452;2023-03-24T03:56:06;99412.19;;;20.69
13497;BMP180;6820;49.374;8.452;2023-03-24T04:00:17;99413.91;;;20.70
13497;BMP180;6820;49.374;8.452;2023-03-24T04:04:48;99425.06;;;20.70
13497;BMP180;6820;49.374;8.452;2023-03-24T04:09:24;99417.34;;;20.73
13497;BMP180;6820;49.374;8.452;2023-03-24T04:27:24;99455.13;;;20.76
13497;BMP180;6820;49.374;8.452;2023-03-24T04:31:40;99460.28;;;20.76
13497;BMP180;6820;49.374;8.452;2023-03-24T04:35:49;99452.56;;;20.77
13497;BMP180;6820;49.374;8.452;2023-03-24T04:39:59;99443.13;;;20.77
13497;BMP180;6820;49.374;8.452;2023-03-24T04:44:02;99436.28;;;20.81
13497;BMP180;6820;49.374;8.452;2023-03-24T04:48:12;99440.56;;;20.80
13497;BMP180;6820;49.374;8.452;2023-03-24T04:52:27;99438.84;;;20.78
13497;BMP180;6820;49.374;8.452;2023-03-24T04:56:36;99437.09;;;20.71
13497;BMP180;6820;49.374;8.452;2023-03-24T05:00:43;99438.78;;;20.66
13497;BMP180;6820;49.374;8.452;2023-03-24T05:04:46;99443.00;;;20.60
13497;BMP180;6820;49.374;8.452;2023-03-24T05:08:59;99438.75;;;20.63
13497;BMP180;6820;49.374;8.452;2023-03-24T05:13:04;99437.88;;;20.61
13497;BMP180;6820;49.374;8.452;2023-03-24T05:17:07;99435.25;;;20.57
13497;BMP180;6820;49.374;8.452;2023-03-24T05:21:09;99448.09;;;20.54
13497;BMP180;6820;49.374;8.452;2023-03-24T05:25:11;99451.50;;;20.54
13497;BMP180;6820;49.374;8.452;2023-03-24T05:29:13;99471.22;;;20.51
13497;BMP180;6820;49.374;8.452;2023-03-24T05:33:14;99469.47;;;20.47
13497;BMP180;6820;49.374;8.452;2023-03-24T05:37:16;99465.19;;;20.45
13497;BMP180;6820;49.374;8.452;2023-03-24T05:41:22;99477.22;;;20.48
13497;BMP180;6820;49.374;8.452;2023-03-24T05:45:24;99479.81;;;20.54
13497;BMP180;6820;49.374;8.452;2023-03-24T05:49:26;99481.59;;;20.57
13497;BMP180;6820;49.374;8.452;2023-03-24T05:53:29;99468.75;;;20.58
13497;BMP180;6820;49.374;8.452;2023-03-24T05:57:43;99461.88;;;20.59
13497;BMP180;6820;49.374;8.452;2023-03-24T06:02:00;99473.91;;;20.60
13497;BMP180;6820;49.374;8.452;2023-03-24T06:06:13;99470.50;;;20.64
13497;BMP180;6820;49.374;8.452;2023-03-24T06:10:17;99466.25;;;20.70
13497;BMP180;6820;49.374;8.452;2023-03-24T06:14:25;99473.13;;;20.73
13497;BMP180;6820;49.374;8.452;2023-03-24T06:18:37;99470.59;;;20.78
13497;BMP180;6820;49.374;8.452;2023-03-24T06:23:01;99483.47;;;20.78
13497;BMP180;6820;49.374;8.452;2023-03-24T06:27:11;99476.59;;;20.77
13497;BMP180;6820;49.374;8.452;2023-03-24T06:31:14;99478.31;;;20.81
13497;BMP180;6820;49.374;8.452;2023-03-24T06:35:19;99483.53;;;20.92
13497;BMP180;6820;49.374;8.452;2023-03-24T06:39:37;99478.44;;;20.99
13497;BMP180;6820;49.374;8.452;2023-03-24T06:43:39;99494.81;;;21.10
13497;BMP180;6820;49.374;8.452;2023-03-24T06:47:41;99489.69;;;21.19
13497;BMP180;6820;49.374;8.452;2023-03-24T06:51:42;99496.63;;;21.29
13497;BMP180;6820;49.374;8.452;2023-03-24T06:55:49;99506.16;;;21.37
13497;BMP180;6820;49.374;8.452;2023-03-24T06:59:54;99506.19;;;21.38
13497;BMP180;6820;49.374;8.452;2023-03-24T07:03:57;99502.72;;;21.39
13497;BMP180;6820;49.374;8.452;2023-03-24T07:08:19;99517.41;;;21.52
13497;BMP180;6820;49.374;8.452;2023-03-24T07:12:30;99524.28;;;21.56
13497;BMP180;6820;49.374;8.452;2023-03-24T07:16:33;99526.88;;;21.61
13497;BMP180;6820;49.374;8.452;2023-03-24T07:20:48;99527.72;;;21.61
13497;BMP180;6820;49.374;8.452;2023-03-24T07:24:52;99515.69;;;21.59
13497;BMP180;6820;49.374;8.452;2023-03-24T07:29:13;99516.53;;;21.46
13497;BMP180;6820;49.374;8.452;2023-03-24T07:33:33;99503.63;;;21.44
13497;BMP180;6820;49.374;8.452;2023-03-24T07:37:36;99512.19;;;21.45
13497;BMP180;6820;49.374;8.452;2023-03-24T07:41:39;99516.50;;;21.47
13497;BMP180;6820;49.374;8.452;2023-03-24T07:45:49;99500.19;;;21.44
13497;BMP180;6820;49.374;8.452;2023-03-24T07:49:51;99508.75;;;21.40
13497;BMP180;6820;49.374;8.452;2023-03-24T07:53:53;99515.63;;;21.35
13497;BMP180;6820;49.374;8.452;2023-03-24T07:58:15;99524.97;;;21.29
13497;BMP180;6820;49.374;8.452;2023-03-24T08:02:32;99505.28;;;21.34
13497;BMP180;6820;49.374;8.452;2023-03-24T08:06:52;99501.91;;;21.46
13497;BMP180;6820;49.374;8.452;2023-03-24T08:10:54;99500.22;;;21.59
13497;BMP180;6820;49.374;8.452;2023-03-24T08:14:56;99517.41;;;21.55
13497;BMP180;6820;49.374;8.452;2023-03-24T08:18:57;99519.09;;;21.50
13497;BMP180;6820;49.374;8.452;2023-03-24T08:22:59;99522.53;;;21.49
13497;BMP180;6820;49.374;8.452;2023-03-24T08:27:04;99524.28;;;21.55
13497;BMP180;6820;49.374;8.452;2023-03-24T08:31:08;99524.25;;;21.53
13497;BMP180;6820;49.374;8.452;2023-03-24T08:35:11;99514.00;;;21.59
13497;BMP180;6820;49.374;8.452;2023-03-24T08:39:14;99510.59;;;21.72
13497;BMP180;6820;49.374;8.452;2023-03-24T08:43:16;99521.78;;;21.72
13497;BMP180;6820;49.374;8.452;2023-03-24T08:47:18;99528.59;;;21.60
13497;BMP180;6820;49.374;8.452;2023-03-24T08:51:19;99524.31;;;21.62
13497;BMP180;6820;49.374;8.452;2023-03-24T08:55:22;99526.03;;;21.66
13497;BMP180;6820;49.374;8.452;2023-03-24T08:59:23;99519.22;;;21.83
13497;BMP180;6820;49.374;8.452;2023-03-24T09:03:25;99526.13;;;21.93
13497;BMP180;6820;49.374;8.452;2023-03-24T09:07:27;99532.13;;;21.81
13497;BMP180;6820;49.374;8.452;2023-03-24T09:11:28;99535.56;;;21.83
13497;BMP180;6820;49.374;8.452;2023-03-24T09:15:30;99519.31;;;22.09
13497;BMP180;6820;49.374;8.452;2023-03-24T09:19:32;99521.06;;;22.28
13497;BMP180;6820;49.374;8.452;2023-03-24T09:23:34;99526.22;;;22.25
13497;BMP180;6820;49.374;8.452;2023-03-24T09:27:36;99538.25;;;22.20
13497;BMP180;6820;49.374;8.452;2023-03-24T09:31:38;99539.06;;;22.04
13497;BMP180;6820;49.374;8.452;2023-03-24T09:35:40;99545.06;;;21.95
13497;BMP180;6820;49.374;8.452;2023-03-24T09:39:42;99538.19;;;21.99
13497;BMP180;6820;49.374;8.452;2023-03-24T09:43:46;99545.16;;;22.18
13497;BMP180;6820;49.374;8.452;2023-03-24T09:48:00;99533.09;;;22.19
13497;BMP180;6820;49.374;8.452;2023-03-24T09:52:05;99547.72;;;22.11
13497;BMP180;6820;49.374;8.452;2023-03-24T09:56:16;99541.69;;;22.13
13497;BMP180;6820;49.374;8.452;2023-03-24T10:00:20;99541.69;;;22.19
13497;BMP180;6820;49.374;8.452;2023-03-24T10:04:27;99553.72;;;22.20
13497;BMP180;6820;49.374;8.452;2023-03-24T10:08:37;99542.50;;;22.06
13497;BMP180;6820;49.374;8.452;2023-03-24T10:12:47;99556.22;;;21.92
13497;BMP180;6820;49.374;8.452;2023-03-24T10:21:16;99569.25;;;22.26
13497;BMP180;6820;49.374;8.452;2023-03-24T10:25:25;99572.66;;;22.16
13497;BMP180;6820;49.374;8.452;2023-03-24T10:29:34;99568.38;;;22.24
13497;BMP180;6820;49.374;8.452;2023-03-24T10:33:40;99572.69;;;22.28
13497;BMP180;6820;49.374;8.452;2023-03-24T10:37:43;99577.88;;;22.34
13497;BMP180;6820;49.374;8.452;2023-03-24T10:41:46;99583.03;;;22.31
13497;BMP180;6820;49.374;8.452;2023-03-24T10:45:51;99585.59;;;22.35
13497;BMP180;6820;49.374;8.452;2023-03-24T10:49:58;99594.22;;;22.49
13497;BMP180;6820;49.374;8.452;2023-03-24T10:58:35;99579.66;;;22.92
13497;BMP180;6820;49.374;8.452;2023-03-24T11:02:40;99592.56;;;22.76
13497;BMP180;6820;49.374;8.452;2023-03-24T11:07:22;99620.88;;;22.35
13497;BMP180;6820;49.374;8.452;2023-03-24T11:11:30;99633.59;;;21.88
13497;BMP180;6820;49.374;8.452;2023-03-24T11:15:34;99658.91;;;21.14
13497;BMP180;6820;49.374;8.452;2023-03-24T11:19:37;99651.59;;;20.67
13497;BMP180;6820;49.374;8.452;2023-03-24T11:23:41;99649.88;;;20.66
13497;BMP180;6820;49.374;8.452;2023-03-24T11:27:47;99657.75;;;20.84
13497;BMP180;6820;49.374;8.452;2023-03-24T11:31:53;99658.84;;;21.09
13497;BMP180;6820;49.374;8.452;2023-03-24T11:35:56;99653.91;;;21.35
13497;BMP180;6820;49.374;8.452;2023-03-24T11:40:18;99652.31;;;21.53
13497;BMP180;6820;49.374;8.452;2023-03-24T11:44:23;99641.19;;;21.64
13497;BMP180;6820;49.374;8.452;2023-03-24T11:48:32;99637.84;;;21.72
13497;BMP180;6820;49.374;8.452;2023-03-24T11:52:56;99639.59;;;21.78
13497;BMP180;6820;49.374;8.452;2023-03-24T11:57:03;99631.88;;;21.88
13497;BMP180;6820;49.374;8.452;2023-03-24T12:01:13;99632.81;;;21.99
13497;BMP180;6820;49.374;8.452;2023-03-24T12:05:35;99633.66;;;22.07
13497;BMP180;6820;49.374;8.452;2023-03-24T12:13:47;99638.91;;;22.13
13497;BMP180;6820;49.374;8.452;2023-03-24T12:22:25;99634.59;;;22.19
13497;BMP180;6820;49.374;8.452;2023-03-24T12:26:31;99625.22;;;22.48
13497;BMP180;6820;49.374;8.452;2023-03-24T12:35:30;99616.69;;;23.12
13497;BMP180;6820;49.374;8.452;2023-03-24T12:57:15;99621.81;;;23.52
13497;BMP180;6820;49.374;8.452;2023-03-24T13:01:34;99614.91;;;23.55
13497;BMP180;6820;49.374;8.452;2023-03-24T13:05:49;99605.41;;;23.57
13497;BMP180;6820;49.374;8.452;2023-03-24T13:10:16;99607.91;;;23.80
13497;BMP180;6820;49.374;8.452;2023-03-24T13:14:26;99601.75;;;24.20
13497;BMP180;6820;49.374;8.452;2023-03-24T13:18:32;99605.84;;;24.49
13497;BMP180;6820;49.374;8.452;2023-03-24T13:22:36;99615.34;;;24.55
13497;BMP180;6820;49.374;8.452;2023-03-24T13:26:40;99623.91;;;24.63
13497;BMP180;6820;49.374;8.452;2023-03-24T13:30:43;99609.22;;;24.65
13497;BMP180;6820;49.374;8.452;2023-03-24T13:38:52;99607.69;;;24.34
13497;BMP180;6820;49.374;8.452;2023-03-24T13:42:56;99605.13;;;24.25
13497;BMP180;6820;49.374;8.452;2023-03-24T13:47:05;99606.91;;;24.22
13497;BMP180;6820;49.374;8.452;2023-03-24T13:51:17;99603.34;;;24.41
13497;BMP180;6820;49.374;8.452;2023-03-24T13:55:22;99596.25;;;24.65
13497;BMP180;6820;49.374;8.452;2023-03-24T13:59:32;99593.59;;;24.75
13497;BMP180;6820;49.374;8.452;2023-03-24T14:03:44;99578.78;;;24.92
13497;BMP180;6820;49.374;8.452;2023-03-24T14:07:47;99570.13;;;24.96
13497;BMP180;6820;49.374;8.452;2023-03-24T14:20:33;99578.72;;;25.01
13497;BMP180;6820;49.374;8.452;2023-03-24T14:24:36;99584.81;;;24.94
13497;BMP180;6820;49.374;8.452;2023-03-24T14:28:48;99562.16;;;25.13
13497;BMP180;6820;49.374;8.452;2023-03-24T14:32:55;99571.78;;;25.06
13497;BMP180;6820;49.374;8.452;2023-03-24T14:37:02;99570.03;;;25.05
13497;BMP180;6820;49.374;8.452;2023-03-24T14:41:07;99571.63;;;25.17
13497;BMP180;6820;49.374;8.452;2023-03-24T14:49:34;99570.88;;;25.05
13497;BMP180;6820;49.374;8.452;2023-03-24T14:53:36;99559.69;;;25.02
13497;BMP180;6820;49.374;8.452;2023-03-24T14:57:43;99571.09;;;24.84
13497;BMP180;6820;49.374;8.452;2023-03-24T15:01:46;99575.44;;;24.77
13497;BMP180;6820;49.374;8.452;2023-03-24T15:05:50;99569.38;;;24.76
13497;BMP180;6820;49.374;8.452;2023-03-24T15:09:51;99558.19;;;24.74
13497;BMP180;6820;49.374;8.452;2023-03-24T15:13:54;99570.34;;;24.65
13497;BMP180;6820;49.374;8.452;2023-03-24T15:17:57;99563.53;;;24.52
13497;BMP180;6820;49.374;8.452;2023-03-24T15:22:04;99559.25;;;24.46
13497;BMP180;6820;49.374;8.452;2023-03-24T15:26:12;99557.88;;;25.09
13497;BMP180;6820;49.374;8.452;2023-03-24T15:30:14;99557.88;;;25.88
13497;BMP180;6820;49.374;8.452;2023-03-24T15:34:35;99540.28;;;26.12
13497;BMP180;6820;49.374;8.452;2023-03-24T15:38:45;99545.84;;;25.81
13497;BMP180;6820;49.374;8.452;2023-03-24T15:42:47;99535.56;;;25.75
13497;BMP180;6820;49.374;8.452;2023-03-24T15:46:49;99538.09;;;25.77
13497;BMP180;6820;49.374;8.452;2023-03-24T15:55:05;99531.03;;;25.88
13497;BMP180;6820;49.374;8.452;2023-03-24T16:03:12;99542.97;;;26.00
13497;BMP180;6820;49.374;8.452;2023-03-24T16:07:21;99536.19;;;25.94
13497;BMP180;6820;49.374;8.452;2023-03-24T16:11:29;99546.78;;;25.74
13497;BMP180;6820;49.374;8.452;2023-03-24T16:15:31;99529.59;;;25.68
13497;BMP180;6820;49.374;8.452;2023-03-24T16:19:33;99529.91;;;25.38
13497;BMP180;6820;49.374;8.452;2023-03-24T16:23:34;99531.06;;;25.10
13497;BMP180;6820;49.374;8.452;2023-03-24T16:27:36;99545.16;;;24.87
13497;BMP180;6820;49.374;8.452;2023-03-24T16:31:38;99542.66;;;24.68
13497;BMP180;6820;49.374;8.452;2023-03-24T16:35:39;99534.97;;;24.59
13497;BMP180;6820;49.374;8.452;2023-03-24T16:39:41;99547.84;;;24.71
13497;BMP180;6820;49.374;8.452;2023-03-24T16:43:44;99547.88;;;24.65
13497;BMP180;6820;49.374;8.452;2023-03-24T16:47:46;99555.09;;;24.25
13497;BMP180;6820;49.374;8.452;2023-03-24T16:51:47;99551.75;;;24.02
13497;BMP180;6820;49.374;8.452;2023-03-24T16:55:49;99554.50;;;23.70
13497;BMP180;6820;49.374;8.452;2023-03-24T16:59:51;99557.13;;;23.48
13497;BMP180;6820;49.374;8.452;2023-03-24T17:03:53;99558.91;;;23.26
13497;BMP180;6820;49.374;8.452;2023-03-24T17:07:56;99574.44;;;23.23
13497;BMP180;6820;49.374;8.452;2023-03-24T17:11:58;99571.84;;;23.21
13497;BMP180;6820;49.374;8.452;2023-03-24T17:16:02;99574.44;;;23.18
13497;BMP180;6820;49.374;8.452;2023-03-24T17:20:04;99589.13;;;23.08
13497;BMP180;6820;49.374;8.452;2023-03-24T17:24:07;99581.38;;;22.96
13497;BMP180;6820;49.374;8.452;2023-03-24T17:28:15;99596.88;;;22.86
13497;BMP180;6820;49.374;8.452;2023-03-24T17:32:17;99611.50;;;22.77
13497;BMP180;6820;49.374;8.452;2023-03-24T17:36:22;99619.22;;;22.66
13497;BMP180;6820;49.374;8.452;2023-03-24T17:40:24;99626.09;;;22.50
13497;BMP180;6820;49.374;8.452;2023-03-24T17:44:26;99627.78;;;22.40
13497;BMP180;6820;49.374;8.452;2023-03-24T17:48:28;99632.94;;;22.36
13497;BMP180;6820;49.374;8.452;2023-03-24T17:52:30;99638.94;;;22.28
13497;BMP180;6820;49.374;8.452;2023-03-24T17:56:32;99639.78;;;22.18
13497;BMP180;6820;49.374;8.452;2023-03-24T18:00:33;99647.47;;;22.12
13497;BMP180;6820;49.374;8.452;2023-03-24T18:04:36;99657.72;;;22.00
13497;BMP180;6820;49.374;8.452;2023-03-24T18:08:38;99658.56;;;21.95
13497;BMP180;6820;49.374;8.452;2023-03-24T18:12:40;99661.13;;;21.86
13497;BMP180;6820;49.374;8.452;2023-03-24T18:16:41;99668.81;;;21.83
13497;BMP180;6820;49.374;8.452;2023-03-24T18:20:43;99668.78;;;21.72
13497;BMP180;6820;49.374;8.452;2023-03-24T18:24:44;99674.72;;;21.64
13497;BMP180;6820;49.374;8.452;2023-03-24T18:28:46;99674.69;;;21.54
13497;BMP180;6820;49.374;8.452;2023-03-24T18:32:48;99673.72;;;21.40
13497;BMP180;6820;49.374;8.452;2023-03-24T18:36:49;99677.91;;;21.32
13497;BMP180;6820;49.374;8.452;2023-03-24T18:40:58;99683.88;;;21.25
13497;BMP180;6820;49.374;8.452;2023-03-24T18:45:00;99685.53;;;21.19
13497;BMP180;6820;49.374;8.452;2023-03-24T18:49:02;99686.31;;;21.10
13497;BMP180;6820;49.374;8.452;2023-03-24T18:53:04;99692.28;;;21.05
13497;BMP180;6820;49.374;8.452;2023-03-24T18:57:06;99687.94;;;20.97
13497;BMP180;6820;49.374;8.452;2023-03-24T19:01:10;99681.06;;;20.96
13497;BMP180;6820;49.374;8.452;2023-03-24T19:05:12;99684.53;;;21.02
13497;BMP180;6820;49.374;8.452;2023-03-24T19:09:15;99684.59;;;21.11
13497;BMP180;6820;49.374;8.452;2023-03-24T19:13:20;99690.69;;;21.19
13497;BMP180;6820;49.374;8.452;2023-03-24T19:17:22;99690.75;;;21.22
13497;BMP180;6820;49.374;8.452;2023-03-24T19:21:24;99694.19;;;21.22
13497;BMP180;6820;49.374;8.452;2023-03-24T19:25:26;99700.16;;;21.21
13497;BMP180;6820;49.374;8.452;2023-03-24T19:29:27;99699.31;;;21.22
13497;BMP180;6820;49.374;8.452;2023-03-24T19:33:29;99700.16;;;21.20
13497;BMP180;6820;49.374;8.452;2023-03-24T19:37:31;99687.25;;;21.17
13497;BMP180;6820;49.374;8.452;2023-03-24T19:41:33;99692.41;;;21.18
13497;BMP180;6820;49.374;8.452;2023-03-24T19:45:35;99711.31;;;21.19
13497;BMP180;6820;49.374;8.452;2023-03-24T19:49:36;99718.78;;;20.91
13497;BMP180;6820;49.374;8.452;2023-03-24T19:53:38;99712.59;;;20.73
13497;BMP180;6820;49.374;8.452;2023-03-24T19:57:40;99707.44;;;20.71
13497;BMP180;6820;49.374;8.452;2023-03-24T20:01:42;99717.78;;;20.74
13497;BMP180;6820;49.374;8.452;2023-03-24T20:05:43;99719.47;;;20.72
13497;BMP180;6820;49.374;8.452;2023-03-24T20:09:45;99723.69;;;20.67
13497;BMP180;6820;49.374;8.452;2023-03-24T20:13:47;99729.56;;;20.56
13497;BMP180;6820;49.374;8.452;2023-03-24T20:17:48;99738.81;;;20.44
13497;BMP180;6820;49.374;8.452;2023-03-24T20:21:51;99731.94;;;20.40
13497;BMP180;6820;49.374;8.452;2023-03-24T20:25:52;99735.44;;;20.46
13497;BMP180;6820;49.374;8.452;2023-03-24T20:29:58;99707.03;;;20.37
13497;BMP180;6820;49.374;8.452;2023-03-24T20:33:59;99717.31;;;20.37
13497;BMP180;6820;49.374;8.452;2023-03-24T20:38:01;99709.56;;;20.36
13497;BMP180;6820;49.374;8.452;2023-03-24T20:42:03;99713.88;;;20.37
13497;BMP180;6820;49.374;8.452;2023-03-24T20:46:06;99734.38;;;20.31
13497;BMP180;6820;49.374;8.452;2023-03-24T20:50:09;99761.72;;;20.23
13497;BMP180;6820;49.374;8.452;2023-03-24T20:54:11;99759.84;;;20.10
13497;BMP180;6820;49.374;8.452;2023-03-24T20:58:13;99759.81;;;20.07
13497;BMP180;6820;49.374;8.452;2023-03-24T21:02:14;99789.75;;;20.04
13497;BMP180;6820;49.374;8.452;2023-03-24T21:06:17;99809.34;;;19.96
13497;BMP180;6820;49.374;8.452;2023-03-24T21:10:19;99784.31;;;19.84
13497;BMP180;6820;49.374;8.452;2023-03-24T21:14:21;99781.38;;;19.62
13497;BMP180;6820;49.374;8.452;2023-03-24T21:18:22;99779.41;;;19.47
13497;BMP180;6820;49.374;8.452;2023-03-24T21:22:24;99782.69;;;19.38
13497;BMP180;6820;49.374;8.452;2023-03-24T21:26:26;99778.28;;;19.31
13497;BMP180;6820;49.374;8.452;2023-03-24T21:30:28;99782.75;;;19.41
13497;BMP180;6820;49.374;8.452;2023-03-24T21:34:30;99788.94;;;19.53
13497;BMP180;6820;49.374;8.452;2023-03-24T21:38:32;99788.97;;;19.55
13497;BMP180;6820;49.374;8.452;2023-03-24T21:42:35;99783.09;;;19.62
13497;BMP180;6820;49.374;8.452;2023-03-24T21:46:37;99783.00;;;19.57
13497;BMP180;6820;49.374;8.452;2023-03-24T21:50:38;99773.41;;;19.48
13497;BMP180;6820;49.374;8.452;2023-03-24T21:54:40;99762.97;;;19.37
13497;BMP180;6820;49.374;8.452;2023-03-24T21:58:41;99758.50;;;19.26
13497;BMP180;6820;49.374;8.452;2023-03-24T22:02:45;99754.97;;;19.20
13497;BMP180;6820;49.374;8.452;2023-03-24T22:06:47;99762.50;;;19.09
13497;BMP180;6820;49.374;8.452;2023-03-24T22:10:49;99765.06;;;19.11
13497;BMP180;6820;49.374;8.452;2023-03-24T22:14:54;99770.50;;;19.27
13497;BMP180;6820;49.374;8.452;2023-03-24T22:18:56;99768.06;;;19.33
13497;BMP180;6820;49.374;8.452;2023-03-24T22:22:58;99772.28;;;19.32
13497;BMP180;6820;49.374;8.452;2023-03-24T22:27:03;99774.91;;;19.34
13497;BMP180;6820;49.374;8.452;2023-03-24T22:31:07;99773.19;;;19.33
13497;BMP180;6820;49.374;8.452;2023-03-24T22:35:09;99766.19;;;19.26
13497;BMP180;6820;49.374;8.452;2023-03-24T22:39:11;99769.69;;;19.29
13497;BMP180;6820;49.374;8.452;2023-03-24T22:43:12;99776.47;;;19.26
13497;BMP180;6820;49.374;8.452;2023-03-24T22:47:14;99765.06;;;19.11
13497;BMP180;6820;49.374;8.452;2023-03-24T22:51:16;99755.59;;;19.07
13497;BMP180;6820;49.374;8.452;2023-03-24T22:55:19;99761.53;;;19.04
13497;BMP180;6820;49.374;8.452;2023-03-24T22:59:21;99783.69;;;18.99
13497;BMP180;6820;49.374;8.452;2023-03-24T23:03:24;99781.94;;;18.95
13497;BMP180;6820;49.374;8.452;2023-03-24T23:07:26;99796.44;;;18.93
13497;BMP180;6820;49.374;8.452;2023-03-24T23:11:29;99801.44;;;18.89
13497;BMP180;6820;49.374;8.452;2023-03-24T23:15:31;99811.69;;;18.88
13497;BMP180;6820;49.374;8.452;2023-03-24T23:19:35;99830.31;;;18.78
13497;BMP180;6820;49.374;8.452;2023-03-24T23:23:38;99834.50;;;18.73
13497;BMP180;6820;49.374;8.452;2023-03-24T23:27:40;99842.25;;;18.76
13497;BMP180;6820;49.374;8.452;2023-03-24T23:31:42;99853.31;;;18.73
13497;BMP180;6820;49.374;8.452;2023-03-24T23:35:44;99866.13;;;18.72
13497;BMP180;6820;49.374;8.452;2023-03-24T23:39:46;99852.97;;;18.57
13497;BMP180;6820;49.374;8.452;2023-03-24T23:43:51;99869.84;;;18.46
13497;BMP180;6820;49.374;8.452;2023-03-24T23:47:53;99857.88;;;18.45
13497;BMP180;6820;49.374;8.452;2023-03-24T23:51:55;99860.44;;;18.47
13497;BMP180;6820;49.374;8.452;2023-03-24T23:55:58;99856.97;;;18.43
